sensor_id;sensor_type;location;lat;lon;timestamp;P1;durP1;ratioP1;P2;durP2;ratioP2
54307;SDS011;40208;39.778;2.710;2023-06-24T00:00:25;7.85;;;4.70;;
54307;SDS011;40208;39.778;2.710;2023-06-24T00:03:10;10.32;;;4.50;;
54307;SDS011;40208;39.778;2.710;2023-06-24T00:05:57;11.80;;;4.95;;
54307;SDS011;40208;39.778;2.710;2023-06-24T00:08:48;7.55;;;3.85;;
54307;SDS011;40208;39.778;2.710;2023-06-24T00:11:33;9.50;;;4.22;;
54307;SDS011;40208;39.778;2.710;2023-06-24T00:14:18;9.75;;;4.63;;
54307;SDS011;40208;39.778;2.710;2023-06-24T00:17:03;7.55;;;4.32;;
54307;SDS011;40208;39.778;2.710;2023-06-24T00:19:48;13.98;;;4.60;;
54307;SDS011;40208;39.778;2.710;2023-06-24T00:22:33;9.95;;;5.13;;
54307;SDS011;40208;39.778;2.710;2023-06-24T00:25:18;6.78;;;4.25;;
54307;SDS011;40208;39.778;2.710;2023-06-24T00:28:03;9.00;;;4.63;;
54307;SDS011;40208;39.778;2.710;2023-06-24T00:30:48;9.40;;;4.18;;
54307;SDS011;40208;39.778;2.710;2023-06-24T00:33:33;6.72;;;4.40;;
54307;SDS011;40208;39.778;2.710;2023-06-24T00:36:20;5.90;;;3.70;;
54307;SDS011;40208;39.778;2.710;2023-06-24T00:39:05;6.57;;;3.92;;
54307;SDS011;40208;39.778;2.710;2023-06-24T00:41:50;7.85;;;4.15;;
54307;SDS011;40208;39.778;2.710;2023-06-24T00:44:35;8.95;;;4.53;;
54307;SDS011;40208;39.778;2.710;2023-06-24T00:47:21;8.63;;;4.10;;
54307;SDS011;40208;39.778;2.710;2023-06-24T00:50:07;6.13;;;4.00;;
54307;SDS011;40208;39.778;2.710;2023-06-24T00:52:52;6.22;;;4.15;;
54307;SDS011;40208;39.778;2.710;2023-06-24T00:55:37;10.15;;;4.38;;
54307;SDS011;40208;39.778;2.710;2023-06-24T00:58:22;8.00;;;4.32;;
54307;SDS011;40208;39.778;2.710;2023-06-24T01:01:07;9.85;;;4.25;;
54307;SDS011;40208;39.778;2.710;2023-06-24T01:03:53;8.15;;;4.45;;
54307;SDS011;40208;39.778;2.710;2023-06-24T01:06:38;9.77;;;4.43;;
54307;SDS011;40208;39.778;2.710;2023-06-24T01:09:28;6.88;;;4.22;;
54307;SDS011;40208;39.778;2.710;2023-06-24T01:12:13;8.45;;;4.63;;
54307;SDS011;40208;39.778;2.710;2023-06-24T01:14:58;6.88;;;4.57;;
54307;SDS011;40208;39.778;2.710;2023-06-24T01:17:45;9.40;;;4.40;;
54307;SDS011;40208;39.778;2.710;2023-06-24T01:20:47;9.85;;;3.80;;
54307;SDS011;40208;39.778;2.710;2023-06-24T01:26:57;10.48;;;4.25;;
54307;SDS011;40208;39.778;2.710;2023-06-24T01:30:00;7.68;;;4.10;;
54307;SDS011;40208;39.778;2.710;2023-06-24T01:32:59;7.70;;;4.22;;
54307;SDS011;40208;39.778;2.710;2023-06-24T01:35:48;5.85;;;4.00;;
54307;SDS011;40208;39.778;2.710;2023-06-24T01:38:40;8.05;;;4.15;;
54307;SDS011;40208;39.778;2.710;2023-06-24T01:41:36;7.47;;;3.90;;
54307;SDS011;40208;39.778;2.710;2023-06-24T01:44:25;8.50;;;4.45;;
54307;SDS011;40208;39.778;2.710;2023-06-24T01:47:14;7.88;;;3.95;;
54307;SDS011;40208;39.778;2.710;2023-06-24T01:50:08;8.85;;;4.20;;
54307;SDS011;40208;39.778;2.710;2023-06-24T01:52:55;10.38;;;4.40;;
54307;SDS011;40208;39.778;2.710;2023-06-24T01:55:41;6.47;;;4.25;;
54307;SDS011;40208;39.778;2.710;2023-06-24T01:58:27;8.90;;;3.95;;
54307;SDS011;40208;39.778;2.710;2023-06-24T02:01:14;7.18;;;4.38;;
54307;SDS011;40208;39.778;2.710;2023-06-24T02:04:00;6.70;;;3.70;;
54307;SDS011;40208;39.778;2.710;2023-06-24T02:06:47;8.93;;;4.15;;
54307;SDS011;40208;39.778;2.710;2023-06-24T02:09:32;6.93;;;4.20;;
54307;SDS011;40208;39.778;2.710;2023-06-24T02:12:18;7.28;;;3.85;;
54307;SDS011;40208;39.778;2.710;2023-06-24T02:15:04;7.47;;;3.95;;
54307;SDS011;40208;39.778;2.710;2023-06-24T02:17:51;5.80;;;4.07;;
54307;SDS011;40208;39.778;2.710;2023-06-24T02:20:39;5.70;;;4.05;;
54307;SDS011;40208;39.778;2.710;2023-06-24T02:23:24;9.07;;;4.97;;
54307;SDS011;40208;39.778;2.710;2023-06-24T02:26:10;8.18;;;3.92;;
54307;SDS011;40208;39.778;2.710;2023-06-24T02:28:56;9.32;;;4.22;;
54307;SDS011;40208;39.778;2.710;2023-06-24T02:31:42;9.98;;;4.30;;
54307;SDS011;40208;39.778;2.710;2023-06-24T02:34:26;8.48;;;4.50;;
54307;SDS011;40208;39.778;2.710;2023-06-24T02:37:11;9.65;;;5.18;;
54307;SDS011;40208;39.778;2.710;2023-06-24T02:39:56;9.32;;;4.05;;
54307;SDS011;40208;39.778;2.710;2023-06-24T02:42:41;8.88;;;4.25;;
54307;SDS011;40208;39.778;2.710;2023-06-24T02:45:26;7.03;;;3.95;;
54307;SDS011;40208;39.778;2.710;2023-06-24T02:48:12;8.25;;;4.13;;
54307;SDS011;40208;39.778;2.710;2023-06-24T02:50:58;8.20;;;3.80;;
54307;SDS011;40208;39.778;2.710;2023-06-24T02:53:45;6.43;;;3.67;;
54307;SDS011;40208;39.778;2.710;2023-06-24T02:56:30;11.60;;;3.97;;
54307;SDS011;40208;39.778;2.710;2023-06-24T02:59:16;8.43;;;3.88;;
54307;SDS011;40208;39.778;2.710;2023-06-24T03:02:01;5.43;;;3.35;;
54307;SDS011;40208;39.778;2.710;2023-06-24T03:04:48;6.45;;;3.50;;
54307;SDS011;40208;39.778;2.710;2023-06-24T03:07:34;10.55;;;3.53;;
54307;SDS011;40208;39.778;2.710;2023-06-24T03:10:22;9.80;;;4.00;;
54307;SDS011;40208;39.778;2.710;2023-06-24T03:13:08;6.60;;;3.90;;
54307;SDS011;40208;39.778;2.710;2023-06-24T03:15:52;5.65;;;3.88;;
54307;SDS011;40208;39.778;2.710;2023-06-24T03:18:41;6.47;;;3.78;;
54307;SDS011;40208;39.778;2.710;2023-06-24T03:21:26;12.32;;;4.28;;
54307;SDS011;40208;39.778;2.710;2023-06-24T03:24:12;6.70;;;3.50;;
54307;SDS011;40208;39.778;2.710;2023-06-24T03:26:57;7.22;;;3.78;;
54307;SDS011;40208;39.778;2.710;2023-06-24T03:29:42;5.05;;;3.67;;
54307;SDS011;40208;39.778;2.710;2023-06-24T03:32:27;9.85;;;3.78;;
54307;SDS011;40208;39.778;2.710;2023-06-24T03:35:12;8.45;;;3.90;;
54307;SDS011;40208;39.778;2.710;2023-06-24T03:37:58;7.60;;;3.92;;
54307;SDS011;40208;39.778;2.710;2023-06-24T03:40:42;7.80;;;3.90;;
54307;SDS011;40208;39.778;2.710;2023-06-24T03:43:28;6.22;;;3.53;;
54307;SDS011;40208;39.778;2.710;2023-06-24T03:46:13;7.20;;;3.50;;
54307;SDS011;40208;39.778;2.710;2023-06-24T03:48:58;7.47;;;3.70;;
54307;SDS011;40208;39.778;2.710;2023-06-24T03:51:42;6.97;;;3.70;;
54307;SDS011;40208;39.778;2.710;2023-06-24T03:54:28;5.47;;;3.53;;
54307;SDS011;40208;39.778;2.710;2023-06-24T03:57:12;6.72;;;3.70;;
54307;SDS011;40208;39.778;2.710;2023-06-24T03:59:57;8.27;;;3.58;;
54307;SDS011;40208;39.778;2.710;2023-06-24T04:02:42;6.63;;;3.75;;
54307;SDS011;40208;39.778;2.710;2023-06-24T04:05:29;11.82;;;4.22;;
54307;SDS011;40208;39.778;2.710;2023-06-24T04:08:14;6.45;;;3.60;;
54307;SDS011;40208;39.778;2.710;2023-06-24T04:10:59;12.80;;;3.38;;
54307;SDS011;40208;39.778;2.710;2023-06-24T04:13:51;6.35;;;3.95;;
54307;SDS011;40208;39.778;2.710;2023-06-24T04:16:35;4.47;;;3.30;;
54307;SDS011;40208;39.778;2.710;2023-06-24T04:19:20;6.20;;;3.63;;
54307;SDS011;40208;39.778;2.710;2023-06-24T04:22:05;8.82;;;3.67;;
54307;SDS011;40208;39.778;2.710;2023-06-24T04:24:50;8.60;;;3.90;;
54307;SDS011;40208;39.778;2.710;2023-06-24T04:27:35;10.63;;;4.00;;
54307;SDS011;40208;39.778;2.710;2023-06-24T04:30:20;7.10;;;4.00;;
54307;SDS011;40208;39.778;2.710;2023-06-24T04:33:05;7.10;;;3.40;;
54307;SDS011;40208;39.778;2.710;2023-06-24T04:35:49;13.23;;;4.07;;
54307;SDS011;40208;39.778;2.710;2023-06-24T04:38:35;7.10;;;3.63;;
54307;SDS011;40208;39.778;2.710;2023-06-24T04:41:20;14.65;;;3.95;;
54307;SDS011;40208;39.778;2.710;2023-06-24T04:44:05;11.57;;;3.90;;
54307;SDS011;40208;39.778;2.710;2023-06-24T04:46:50;7.72;;;4.00;;
54307;SDS011;40208;39.778;2.710;2023-06-24T04:49:36;7.47;;;3.83;;
54307;SDS011;40208;39.778;2.710;2023-06-24T04:52:22;7.40;;;3.47;;
54307;SDS011;40208;39.778;2.710;2023-06-24T04:55:07;9.45;;;3.97;;
54307;SDS011;40208;39.778;2.710;2023-06-24T04:57:52;5.32;;;3.88;;
54307;SDS011;40208;39.778;2.710;2023-06-24T05:00:37;7.00;;;3.63;;
54307;SDS011;40208;39.778;2.710;2023-06-24T05:03:23;7.32;;;4.63;;
54307;SDS011;40208;39.778;2.710;2023-06-24T05:06:08;6.68;;;4.32;;
54307;SDS011;40208;39.778;2.710;2023-06-24T05:08:53;8.98;;;4.28;;
54307;SDS011;40208;39.778;2.710;2023-06-24T05:11:39;10.75;;;4.28;;
54307;SDS011;40208;39.778;2.710;2023-06-24T05:14:26;9.15;;;4.70;;
54307;SDS011;40208;39.778;2.710;2023-06-24T05:17:11;14.73;;;4.78;;
54307;SDS011;40208;39.778;2.710;2023-06-24T05:19:55;12.63;;;4.80;;
54307;SDS011;40208;39.778;2.710;2023-06-24T05:22:40;17.52;;;5.10;;
54307;SDS011;40208;39.778;2.710;2023-06-24T05:25:25;11.18;;;4.22;;
54307;SDS011;40208;39.778;2.710;2023-06-24T05:28:10;12.85;;;4.43;;
54307;SDS011;40208;39.778;2.710;2023-06-24T05:30:56;9.55;;;3.90;;
54307;SDS011;40208;39.778;2.710;2023-06-24T05:33:41;9.80;;;3.83;;
54307;SDS011;40208;39.778;2.710;2023-06-24T05:36:26;8.75;;;4.43;;
54307;SDS011;40208;39.778;2.710;2023-06-24T05:39:12;7.53;;;3.92;;
54307;SDS011;40208;39.778;2.710;2023-06-24T05:41:57;9.63;;;4.28;;
54307;SDS011;40208;39.778;2.710;2023-06-24T05:44:42;12.43;;;4.60;;
54307;SDS011;40208;39.778;2.710;2023-06-24T05:47:27;13.13;;;4.40;;
54307;SDS011;40208;39.778;2.710;2023-06-24T05:50:12;9.52;;;4.25;;
54307;SDS011;40208;39.778;2.710;2023-06-24T05:52:57;8.18;;;4.10;;
54307;SDS011;40208;39.778;2.710;2023-06-24T05:55:42;10.35;;;4.75;;
54307;SDS011;40208;39.778;2.710;2023-06-24T05:58:27;8.68;;;4.70;;
54307;SDS011;40208;39.778;2.710;2023-06-24T06:01:12;9.18;;;5.45;;
54307;SDS011;40208;39.778;2.710;2023-06-24T06:03:57;14.50;;;5.50;;
54307;SDS011;40208;39.778;2.710;2023-06-24T06:06:42;13.00;;;5.28;;
54307;SDS011;40208;39.778;2.710;2023-06-24T06:09:27;6.45;;;4.70;;
54307;SDS011;40208;39.778;2.710;2023-06-24T06:12:12;7.55;;;4.03;;
54307;SDS011;40208;39.778;2.710;2023-06-24T06:14:56;9.50;;;4.95;;
54307;SDS011;40208;39.778;2.710;2023-06-24T06:17:42;11.05;;;4.65;;
54307;SDS011;40208;39.778;2.710;2023-06-24T06:20:26;8.45;;;4.60;;
54307;SDS011;40208;39.778;2.710;2023-06-24T06:23:12;8.30;;;4.60;;
54307;SDS011;40208;39.778;2.710;2023-06-24T06:25:56;8.52;;;4.10;;
54307;SDS011;40208;39.778;2.710;2023-06-24T06:28:42;7.03;;;4.03;;
54307;SDS011;40208;39.778;2.710;2023-06-24T06:31:27;10.13;;;4.53;;
54307;SDS011;40208;39.778;2.710;2023-06-24T06:34:12;10.70;;;4.38;;
54307;SDS011;40208;39.778;2.710;2023-06-24T06:36:57;6.05;;;3.63;;
54307;SDS011;40208;39.778;2.710;2023-06-24T06:39:41;10.35;;;4.65;;
54307;SDS011;40208;39.778;2.710;2023-06-24T06:42:26;6.75;;;3.97;;
54307;SDS011;40208;39.778;2.710;2023-06-24T06:45:11;6.20;;;3.63;;
54307;SDS011;40208;39.778;2.710;2023-06-24T06:47:56;7.40;;;3.88;;
54307;SDS011;40208;39.778;2.710;2023-06-24T06:50:41;5.90;;;3.60;;
54307;SDS011;40208;39.778;2.710;2023-06-24T06:53:26;6.45;;;3.65;;
54307;SDS011;40208;39.778;2.710;2023-06-24T06:56:22;5.63;;;3.38;;
54307;SDS011;40208;39.778;2.710;2023-06-24T06:59:08;5.13;;;3.30;;
54307;SDS011;40208;39.778;2.710;2023-06-24T07:01:53;5.72;;;3.75;;
54307;SDS011;40208;39.778;2.710;2023-06-24T07:04:38;9.65;;;3.45;;
54307;SDS011;40208;39.778;2.710;2023-06-24T07:07:23;5.05;;;3.40;;
54307;SDS011;40208;39.778;2.710;2023-06-24T07:10:08;6.38;;;3.50;;
54307;SDS011;40208;39.778;2.710;2023-06-24T07:12:53;6.43;;;3.78;;
54307;SDS011;40208;39.778;2.710;2023-06-24T07:15:42;7.68;;;3.45;;
54307;SDS011;40208;39.778;2.710;2023-06-24T07:18:27;7.35;;;3.60;;
54307;SDS011;40208;39.778;2.710;2023-06-24T07:21:14;5.13;;;3.40;;
54307;SDS011;40208;39.778;2.710;2023-06-24T07:23:59;8.55;;;4.38;;
54307;SDS011;40208;39.778;2.710;2023-06-24T07:26:44;9.98;;;4.28;;
54307;SDS011;40208;39.778;2.710;2023-06-24T07:29:29;32.35;;;10.43;;
54307;SDS011;40208;39.778;2.710;2023-06-24T07:32:14;57.40;;;15.82;;
54307;SDS011;40208;39.778;2.710;2023-06-24T07:34:59;45.78;;;14.93;;
54307;SDS011;40208;39.778;2.710;2023-06-24T07:37:44;31.42;;;9.40;;
54307;SDS011;40208;39.778;2.710;2023-06-24T07:40:29;22.35;;;7.05;;
54307;SDS011;40208;39.778;2.710;2023-06-24T07:43:14;17.40;;;6.85;;
54307;SDS011;40208;39.778;2.710;2023-06-24T07:45:59;13.20;;;4.93;;
54307;SDS011;40208;39.778;2.710;2023-06-24T07:48:44;10.90;;;4.72;;
54307;SDS011;40208;39.778;2.710;2023-06-24T07:51:29;13.40;;;4.40;;
54307;SDS011;40208;39.778;2.710;2023-06-24T07:54:14;11.35;;;4.20;;
54307;SDS011;40208;39.778;2.710;2023-06-24T07:56:59;11.70;;;4.00;;
54307;SDS011;40208;39.778;2.710;2023-06-24T07:59:44;8.48;;;4.30;;
54307;SDS011;40208;39.778;2.710;2023-06-24T08:02:29;9.52;;;3.72;;
54307;SDS011;40208;39.778;2.710;2023-06-24T08:05:14;10.75;;;4.03;;
54307;SDS011;40208;39.778;2.710;2023-06-24T08:07:59;8.68;;;3.92;;
54307;SDS011;40208;39.778;2.710;2023-06-24T08:10:44;6.93;;;3.78;;
54307;SDS011;40208;39.778;2.710;2023-06-24T08:13:30;7.65;;;3.53;;
54307;SDS011;40208;39.778;2.710;2023-06-24T08:16:16;8.85;;;3.47;;
54307;SDS011;40208;39.778;2.710;2023-06-24T08:19:02;12.00;;;4.10;;
54307;SDS011;40208;39.778;2.710;2023-06-24T08:21:47;6.93;;;3.55;;
54307;SDS011;40208;39.778;2.710;2023-06-24T08:24:32;5.53;;;3.88;;
54307;SDS011;40208;39.778;2.710;2023-06-24T08:27:17;9.07;;;4.32;;
54307;SDS011;40208;39.778;2.710;2023-06-24T08:30:03;4.97;;;3.85;;
54307;SDS011;40208;39.778;2.710;2023-06-24T08:32:51;7.10;;;3.70;;
54307;SDS011;40208;39.778;2.710;2023-06-24T08:35:36;10.63;;;3.72;;
54307;SDS011;40208;39.778;2.710;2023-06-24T08:38:21;6.05;;;3.65;;
54307;SDS011;40208;39.778;2.710;2023-06-24T08:41:06;10.02;;;3.85;;
54307;SDS011;40208;39.778;2.710;2023-06-24T08:43:52;6.13;;;3.60;;
54307;SDS011;40208;39.778;2.710;2023-06-24T08:46:37;5.50;;;3.63;;
54307;SDS011;40208;39.778;2.710;2023-06-24T08:52:13;9.13;;;3.42;;
54307;SDS011;40208;39.778;2.710;2023-06-24T08:55:00;6.90;;;3.75;;
54307;SDS011;40208;39.778;2.710;2023-06-24T08:57:46;9.00;;;3.85;;
54307;SDS011;40208;39.778;2.710;2023-06-24T09:00:31;7.93;;;3.75;;
54307;SDS011;40208;39.778;2.710;2023-06-24T09:03:16;8.48;;;3.45;;
54307;SDS011;40208;39.778;2.710;2023-06-24T09:06:01;7.38;;;3.78;;
54307;SDS011;40208;39.778;2.710;2023-06-24T09:08:55;7.30;;;3.80;;
54307;SDS011;40208;39.778;2.710;2023-06-24T09:11:40;9.85;;;3.33;;
54307;SDS011;40208;39.778;2.710;2023-06-24T09:14:26;10.45;;;3.72;;
54307;SDS011;40208;39.778;2.710;2023-06-24T09:17:12;15.63;;;3.50;;
54307;SDS011;40208;39.778;2.710;2023-06-24T09:20:03;7.72;;;3.83;;
54307;SDS011;40208;39.778;2.710;2023-06-24T09:22:49;10.10;;;4.13;;
54307;SDS011;40208;39.778;2.710;2023-06-24T09:25:34;8.18;;;4.13;;
54307;SDS011;40208;39.778;2.710;2023-06-24T09:28:19;6.88;;;3.25;;
54307;SDS011;40208;39.778;2.710;2023-06-24T09:31:07;8.43;;;3.67;;
54307;SDS011;40208;39.778;2.710;2023-06-24T09:33:56;10.02;;;3.30;;
54307;SDS011;40208;39.778;2.710;2023-06-24T09:36:42;6.10;;;3.65;;
54307;SDS011;40208;39.778;2.710;2023-06-24T09:39:30;8.80;;;3.40;;
54307;SDS011;40208;39.778;2.710;2023-06-24T09:42:20;6.95;;;3.33;;
54307;SDS011;40208;39.778;2.710;2023-06-24T09:45:08;8.25;;;3.53;;
54307;SDS011;40208;39.778;2.710;2023-06-24T09:47:54;5.40;;;2.92;;
54307;SDS011;40208;39.778;2.710;2023-06-24T09:50:40;8.23;;;3.38;;
54307;SDS011;40208;39.778;2.710;2023-06-24T09:53:25;12.32;;;3.90;;
54307;SDS011;40208;39.778;2.710;2023-06-24T09:56:11;8.02;;;3.30;;
54307;SDS011;40208;39.778;2.710;2023-06-24T09:58:58;7.00;;;3.58;;
54307;SDS011;40208;39.778;2.710;2023-06-24T10:01:43;9.43;;;3.80;;
54307;SDS011;40208;39.778;2.710;2023-06-24T10:04:29;8.82;;;3.72;;
54307;SDS011;40208;39.778;2.710;2023-06-24T10:07:15;6.40;;;2.90;;
54307;SDS011;40208;39.778;2.710;2023-06-24T10:10:04;8.70;;;3.42;;
54307;SDS011;40208;39.778;2.710;2023-06-24T10:12:49;7.47;;;3.35;;
54307;SDS011;40208;39.778;2.710;2023-06-24T10:15:35;9.02;;;3.33;;
54307;SDS011;40208;39.778;2.710;2023-06-24T10:21:24;8.93;;;3.78;;
54307;SDS011;40208;39.778;2.710;2023-06-24T10:27:28;5.65;;;3.40;;
54307;SDS011;40208;39.778;2.710;2023-06-24T10:30:17;6.43;;;3.42;;
54307;SDS011;40208;39.778;2.710;2023-06-24T10:33:10;10.38;;;3.40;;
54307;SDS011;40208;39.778;2.710;2023-06-24T10:35:55;6.03;;;3.10;;
54307;SDS011;40208;39.778;2.710;2023-06-24T10:38:40;6.85;;;3.45;;
54307;SDS011;40208;39.778;2.710;2023-06-24T10:41:25;12.48;;;3.63;;
54307;SDS011;40208;39.778;2.710;2023-06-24T10:44:16;6.70;;;3.45;;
54307;SDS011;40208;39.778;2.710;2023-06-24T10:47:01;9.43;;;3.20;;
54307;SDS011;40208;39.778;2.710;2023-06-24T10:49:46;7.20;;;3.30;;
54307;SDS011;40208;39.778;2.710;2023-06-24T10:52:30;10.27;;;3.05;;
54307;SDS011;40208;39.778;2.710;2023-06-24T10:55:16;7.10;;;3.17;;
54307;SDS011;40208;39.778;2.710;2023-06-24T10:58:08;9.35;;;3.85;;
54307;SDS011;40208;39.778;2.710;2023-06-24T11:01:06;9.75;;;3.83;;
54307;SDS011;40208;39.778;2.710;2023-06-24T11:03:52;5.78;;;3.15;;
54307;SDS011;40208;39.778;2.710;2023-06-24T11:06:37;9.88;;;3.35;;
54307;SDS011;40208;39.778;2.710;2023-06-24T11:09:22;5.95;;;3.72;;
54307;SDS011;40208;39.778;2.710;2023-06-24T11:12:10;6.82;;;3.13;;
54307;SDS011;40208;39.778;2.710;2023-06-24T11:14:59;11.07;;;3.63;;
54307;SDS011;40208;39.778;2.710;2023-06-24T11:17:50;8.85;;;3.20;;
54307;SDS011;40208;39.778;2.710;2023-06-24T11:20:36;8.65;;;3.45;;
54307;SDS011;40208;39.778;2.710;2023-06-24T11:23:21;5.35;;;3.20;;
54307;SDS011;40208;39.778;2.710;2023-06-24T11:26:07;8.35;;;3.13;;
54307;SDS011;40208;39.778;2.710;2023-06-24T11:28:51;4.70;;;3.10;;
54307;SDS011;40208;39.778;2.710;2023-06-24T11:31:36;7.18;;;3.47;;
54307;SDS011;40208;39.778;2.710;2023-06-24T11:34:22;5.43;;;2.90;;
54307;SDS011;40208;39.778;2.710;2023-06-24T11:37:13;6.30;;;3.42;;
54307;SDS011;40208;39.778;2.710;2023-06-24T11:40:04;4.70;;;2.80;;
54307;SDS011;40208;39.778;2.710;2023-06-24T11:42:53;3.58;;;2.50;;
54307;SDS011;40208;39.778;2.710;2023-06-24T11:45:38;5.82;;;2.90;;
54307;SDS011;40208;39.778;2.710;2023-06-24T11:48:26;5.97;;;3.20;;
54307;SDS011;40208;39.778;2.710;2023-06-24T11:51:12;10.65;;;3.10;;
54307;SDS011;40208;39.778;2.710;2023-06-24T11:54:00;6.18;;;3.00;;
54307;SDS011;40208;39.778;2.710;2023-06-24T11:56:50;6.82;;;3.40;;
54307;SDS011;40208;39.778;2.710;2023-06-24T11:59:36;4.32;;;2.58;;
54307;SDS011;40208;39.778;2.710;2023-06-24T12:02:21;5.70;;;2.80;;
54307;SDS011;40208;39.778;2.710;2023-06-24T12:05:06;5.03;;;3.00;;
54307;SDS011;40208;39.778;2.710;2023-06-24T12:07:50;6.00;;;3.20;;
54307;SDS011;40208;39.778;2.710;2023-06-24T12:10:36;5.15;;;3.03;;
54307;SDS011;40208;39.778;2.710;2023-06-24T12:13:22;9.18;;;3.22;;
54307;SDS011;40208;39.778;2.710;2023-06-24T12:16:07;6.05;;;3.03;;
54307;SDS011;40208;39.778;2.710;2023-06-24T12:18:52;7.28;;;3.03;;
54307;SDS011;40208;39.778;2.710;2023-06-24T12:21:37;5.85;;;3.17;;
54307;SDS011;40208;39.778;2.710;2023-06-24T12:24:22;4.55;;;2.92;;
54307;SDS011;40208;39.778;2.710;2023-06-24T12:27:07;6.93;;;3.10;;
54307;SDS011;40208;39.778;2.710;2023-06-24T12:29:52;7.13;;;3.38;;
54307;SDS011;40208;39.778;2.710;2023-06-24T12:32:37;5.95;;;3.45;;
54307;SDS011;40208;39.778;2.710;2023-06-24T12:35:22;5.60;;;2.95;;
54307;SDS011;40208;39.778;2.710;2023-06-24T12:38:09;6.93;;;3.00;;
54307;SDS011;40208;39.778;2.710;2023-06-24T12:40:54;12.00;;;3.17;;
54307;SDS011;40208;39.778;2.710;2023-06-24T12:43:41;7.95;;;3.05;;
54307;SDS011;40208;39.778;2.710;2023-06-24T12:46:25;6.35;;;2.92;;
54307;SDS011;40208;39.778;2.710;2023-06-24T12:49:10;9.05;;;3.20;;
54307;SDS011;40208;39.778;2.710;2023-06-24T12:51:55;6.95;;;3.05;;
54307;SDS011;40208;39.778;2.710;2023-06-24T12:54:40;6.05;;;2.92;;
54307;SDS011;40208;39.778;2.710;2023-06-24T12:57:25;5.38;;;3.13;;
54307;SDS011;40208;39.778;2.710;2023-06-24T13:00:10;7.63;;;3.33;;
54307;SDS011;40208;39.778;2.710;2023-06-24T13:02:55;6.07;;;3.28;;
54307;SDS011;40208;39.778;2.710;2023-06-24T13:05:40;5.72;;;2.80;;
54307;SDS011;40208;39.778;2.710;2023-06-24T13:08:25;4.88;;;3.40;;
54307;SDS011;40208;39.778;2.710;2023-06-24T13:11:10;9.88;;;3.05;;
54307;SDS011;40208;39.778;2.710;2023-06-24T13:13:55;4.82;;;2.42;;
54307;SDS011;40208;39.778;2.710;2023-06-24T13:16:39;5.25;;;2.97;;
54307;SDS011;40208;39.778;2.710;2023-06-24T13:19:24;6.60;;;3.08;;
54307;SDS011;40208;39.778;2.710;2023-06-24T13:22:10;6.28;;;2.83;;
54307;SDS011;40208;39.778;2.710;2023-06-24T13:24:54;6.05;;;3.33;;
54307;SDS011;40208;39.778;2.710;2023-06-24T13:27:39;5.25;;;2.70;;
54307;SDS011;40208;39.778;2.710;2023-06-24T13:30:24;7.60;;;3.53;;
54307;SDS011;40208;39.778;2.710;2023-06-24T13:33:09;5.35;;;2.78;;
54307;SDS011;40208;39.778;2.710;2023-06-24T13:35:54;6.07;;;3.30;;
54307;SDS011;40208;39.778;2.710;2023-06-24T13:38:40;6.95;;;3.40;;
54307;SDS011;40208;39.778;2.710;2023-06-24T13:41:25;7.30;;;3.05;;
54307;SDS011;40208;39.778;2.710;2023-06-24T13:44:13;5.93;;;3.08;;
54307;SDS011;40208;39.778;2.710;2023-06-24T13:46:58;7.03;;;3.42;;
54307;SDS011;40208;39.778;2.710;2023-06-24T13:49:43;6.70;;;3.05;;
54307;SDS011;40208;39.778;2.710;2023-06-24T13:52:28;5.93;;;3.13;;
54307;SDS011;40208;39.778;2.710;2023-06-24T13:55:13;6.50;;;3.35;;
54307;SDS011;40208;39.778;2.710;2023-06-24T13:57:57;4.32;;;2.75;;
54307;SDS011;40208;39.778;2.710;2023-06-24T14:00:42;4.70;;;2.78;;
54307;SDS011;40208;39.778;2.710;2023-06-24T14:03:27;5.47;;;2.85;;
54307;SDS011;40208;39.778;2.710;2023-06-24T14:06:13;7.45;;;3.47;;
54307;SDS011;40208;39.778;2.710;2023-06-24T14:09:00;6.38;;;2.97;;
54307;SDS011;40208;39.778;2.710;2023-06-24T14:11:44;5.57;;;3.17;;
54307;SDS011;40208;39.778;2.710;2023-06-24T14:14:29;4.47;;;3.10;;
54307;SDS011;40208;39.778;2.710;2023-06-24T14:17:14;9.98;;;3.22;;
54307;SDS011;40208;39.778;2.710;2023-06-24T14:19:59;4.85;;;2.72;;
54307;SDS011;40208;39.778;2.710;2023-06-24T14:22:44;4.80;;;2.80;;
54307;SDS011;40208;39.778;2.710;2023-06-24T14:25:29;6.18;;;3.05;;
54307;SDS011;40208;39.778;2.710;2023-06-24T14:28:13;4.97;;;2.88;;
54307;SDS011;40208;39.778;2.710;2023-06-24T14:30:58;7.20;;;3.50;;
54307;SDS011;40208;39.778;2.710;2023-06-24T14:33:43;5.55;;;3.30;;
54307;SDS011;40208;39.778;2.710;2023-06-24T14:36:28;6.35;;;2.97;;
54307;SDS011;40208;39.778;2.710;2023-06-24T14:39:14;4.75;;;3.15;;
54307;SDS011;40208;39.778;2.710;2023-06-24T14:42:00;7.72;;;3.45;;
54307;SDS011;40208;39.778;2.710;2023-06-24T14:44:45;7.35;;;3.35;;
54307;SDS011;40208;39.778;2.710;2023-06-24T14:47:29;4.93;;;3.05;;
54307;SDS011;40208;39.778;2.710;2023-06-24T14:50:15;5.18;;;3.15;;
54307;SDS011;40208;39.778;2.710;2023-06-24T14:53:00;5.60;;;2.65;;
54307;SDS011;40208;39.778;2.710;2023-06-24T14:55:45;5.25;;;3.22;;
54307;SDS011;40208;39.778;2.710;2023-06-24T14:58:30;7.22;;;3.38;;
54307;SDS011;40208;39.778;2.710;2023-06-24T15:01:15;5.38;;;3.22;;
54307;SDS011;40208;39.778;2.710;2023-06-24T15:04:00;5.80;;;3.40;;
54307;SDS011;40208;39.778;2.710;2023-06-24T15:06:45;6.93;;;2.95;;
54307;SDS011;40208;39.778;2.710;2023-06-24T15:09:30;9.18;;;3.17;;
54307;SDS011;40208;39.778;2.710;2023-06-24T15:12:14;5.80;;;3.15;;
54307;SDS011;40208;39.778;2.710;2023-06-24T15:15:00;4.82;;;2.95;;
54307;SDS011;40208;39.778;2.710;2023-06-24T15:17:45;9.50;;;3.60;;
54307;SDS011;40208;39.778;2.710;2023-06-24T15:20:29;4.60;;;3.10;;
54307;SDS011;40208;39.778;2.710;2023-06-24T15:23:14;7.07;;;3.45;;
54307;SDS011;40208;39.778;2.710;2023-06-24T15:25:59;6.57;;;3.17;;
54307;SDS011;40208;39.778;2.710;2023-06-24T15:28:44;6.82;;;2.92;;
54307;SDS011;40208;39.778;2.710;2023-06-24T15:31:29;9.05;;;3.30;;
54307;SDS011;40208;39.778;2.710;2023-06-24T15:34:13;5.32;;;3.08;;
54307;SDS011;40208;39.778;2.710;2023-06-24T15:36:58;4.95;;;3.28;;
54307;SDS011;40208;39.778;2.710;2023-06-24T15:39:43;7.30;;;3.00;;
54307;SDS011;40208;39.778;2.710;2023-06-24T15:42:27;4.95;;;2.67;;
54307;SDS011;40208;39.778;2.710;2023-06-24T15:45:12;10.00;;;3.58;;
54307;SDS011;40208;39.778;2.710;2023-06-24T15:47:57;8.52;;;3.47;;
54307;SDS011;40208;39.778;2.710;2023-06-24T15:50:42;7.68;;;3.47;;
54307;SDS011;40208;39.778;2.710;2023-06-24T15:53:27;6.47;;;3.08;;
54307;SDS011;40208;39.778;2.710;2023-06-24T15:56:12;4.97;;;3.17;;
54307;SDS011;40208;39.778;2.710;2023-06-24T15:58:57;4.13;;;3.10;;
54307;SDS011;40208;39.778;2.710;2023-06-24T16:01:42;4.25;;;2.95;;
54307;SDS011;40208;39.778;2.710;2023-06-24T16:04:27;5.82;;;3.30;;
54307;SDS011;40208;39.778;2.710;2023-06-24T16:07:12;4.47;;;3.35;;
54307;SDS011;40208;39.778;2.710;2023-06-24T16:09:57;5.07;;;3.50;;
54307;SDS011;40208;39.778;2.710;2023-06-24T16:12:42;4.07;;;3.05;;
54307;SDS011;40208;39.778;2.710;2023-06-24T16:15:27;6.63;;;3.28;;
54307;SDS011;40208;39.778;2.710;2023-06-24T16:18:12;4.22;;;2.92;;
54307;SDS011;40208;39.778;2.710;2023-06-24T16:20:56;6.20;;;3.47;;
54307;SDS011;40208;39.778;2.710;2023-06-24T16:23:41;4.88;;;3.15;;
54307;SDS011;40208;39.778;2.710;2023-06-24T16:26:26;5.53;;;3.45;;
54307;SDS011;40208;39.778;2.710;2023-06-24T16:29:11;6.78;;;3.45;;
54307;SDS011;40208;39.778;2.710;2023-06-24T16:31:55;5.10;;;3.30;;
54307;SDS011;40208;39.778;2.710;2023-06-24T16:34:40;4.28;;;3.13;;
54307;SDS011;40208;39.778;2.710;2023-06-24T16:37:25;6.65;;;3.22;;
54307;SDS011;40208;39.778;2.710;2023-06-24T16:40:10;3.67;;;2.95;;
54307;SDS011;40208;39.778;2.710;2023-06-24T16:42:55;4.88;;;3.45;;
54307;SDS011;40208;39.778;2.710;2023-06-24T16:45:40;4.88;;;2.95;;
54307;SDS011;40208;39.778;2.710;2023-06-24T16:48:25;6.68;;;4.10;;